Time;durP1;ratioP1;P1;durP2;ratioP2;P2;SDS_P1;SDS_P2;PMS_P1;PMS_P2;Temp;Humidity;BMP_temperature;BMP_pressure;BME280_temperature;BME280_humidity;BME280_pressure;Samples;Min_cycle;Max_cycle;Signal;HPM_P1;HPM_P2
2021/03/13 00:02:25;;;;;;;1.38;0.40;;;;;;;1.84;53.83;99684.72;5048213;28;20564;-70
2021/03/13 00:04:51;;;;;;;3.47;0.30;;;;;;;1.97;53.09;99687.88;5037492;28;20721;-71
2021/03/13 00:07:16;;;;;;;1.65;0.80;;;;;;;2.10;52.58;99691.88;5058493;28;20039;-70
2021/03/13 00:09:43;;;;;;;1.17;0.10;;;;;;;2.09;52.80;99690.19;5036619;28;20042;-70
2021/03/13 00:12:09;;;;;;;2.45;0.20;;;;;;;2.12;52.78;99682.38;5035812;28;20510;-70
2021/03/13 00:14:34;;;;;;;2.88;0.32;;;;;;;2.33;52.11;99684.44;5038462;28;20041;-72
2021/03/13 00:17:00;;;;;;;5.90;0.28;;;;;;;2.34;51.92;99685.28;5056008;28;20059;-71
2021/03/13 00:19:25;;;;;;;5.43;0.90;;;;;;;2.05;52.57;99688.56;5043239;28;20058;-71
2021/03/13 00:21:51;;;;;;;5.15;0.32;;;;;;;2.10;52.91;99686.72;5039227;28;20044;-71
2021/03/13 00:24:16;;;;;;;3.55;0.38;;;;;;;2.19;52.45;99685.66;5034373;28;20039;-72
2021/03/13 00:26:42;;;;;;;4.95;0.40;;;;;;;2.07;52.53;99681.66;5040683;28;20020;-72
2021/03/13 00:29:08;;;;;;;3.03;0.40;;;;;;;2.18;52.74;99666.75;5036670;28;20041;-72
2021/03/13 00:31:33;;;;;;;1.10;0.90;;;;;;;2.59;51.72;99670.00;5053691;28;20132;-69
2021/03/13 00:33:59;;;;;;;3.38;0.43;;;;;;;2.84;51.20;99671.94;5050913;28;20101;-72
2021/03/13 00:36:24;;;;;;;2.50;0.50;;;;;;;3.19;50.31;99661.47;5054675;28;20029;-69
2021/03/13 00:38:50;;;;;;;3.65;0.50;;;;;;;3.19;49.92;99655.47;5050806;28;20040;-69
2021/03/13 00:41:15;;;;;;;1.77;0.55;;;;;;;2.99;50.30;99653.44;5038996;28;20067;-70
2021/03/13 00:43:41;;;;;;;5.57;1.00;;;;;;;2.26;52.91;99657.09;5042149;28;20040;-70
2021/03/13 00:46:06;;;;;;;8.07;0.73;;;;;;;2.07;53.79;99661.03;5054611;28;20040;-70
2021/03/13 00:48:32;;;;;;;10.07;0.70;;;;;;;2.32;53.19;99654.38;5037064;28;20083;-70
2021/03/13 00:50:57;;;;;;;4.97;0.70;;;;;;;2.19;53.98;99652.97;5055323;28;20036;-70
2021/03/13 00:53:23;;;;;;;6.60;0.82;;;;;;;2.40;53.59;99649.03;5035498;28;20033;-70
2021/03/13 00:55:48;;;;;;;11.65;2.35;;;;;;;1.70;55.88;99654.13;5033828;28;20032;-70
2021/03/13 00:58:22;;;;;;;8.73;0.95;;;;;;;1.61;56.28;99656.94;5053168;28;20420;-70
2021/03/13 01:00:57;;;;;;;14.95;1.48;;;;;;;2.26;54.92;99653.66;5055827;28;20509;-70
2021/03/13 01:03:28;;;;;;;9.73;2.00;;;;;;;2.56;54.10;99644.31;5050941;28;20029;-70
2021/03/13 01:05:53;;;;;;;8.73;1.58;;;;;;;2.60;54.08;99645.94;5053687;28;20567;-70
2021/03/13 01:08:22;;;;;;;6.32;1.60;;;;;;;2.12;55.68;99631.66;5052762;28;20155;-70
2021/03/13 01:10:55;;;;;;;17.25;1.88;;;;;;;2.42;55.19;99636.94;5043127;28;20036;-69
2021/03/13 01:13:25;;;;;;;17.13;2.47;;;;;;;2.06;56.47;99633.53;5035762;28;20032;-70
2021/03/13 01:15:52;;;;;;;9.70;2.22;;;;;;;1.85;57.45;99627.19;5043221;28;20021;-70
2021/03/13 01:18:19;;;;;;;18.95;2.35;;;;;;;2.46;56.16;99617.88;5036768;28;20032;-70
2021/03/13 01:20:46;;;;;;;19.40;3.25;;;;;;;2.46;56.07;99611.91;5050788;28;20020;-70
2021/03/13 01:23:12;;;;;;;17.67;2.13;;;;;;;1.88;58.02;99611.63;5042280;28;20040;-70
2021/03/13 01:25:38;;;;;;;16.58;2.60;;;;;;;2.50;55.99;99603.19;5035050;28;20032;-70
2021/03/13 01:28:04;;;;;;;10.75;2.65;;;;;;;2.19;57.23;99604.00;5049507;28;20434;-70
2021/03/13 01:30:30;;;;;;;17.23;3.10;;;;;;;2.41;56.34;99599.13;5019636;28;20108;-69
2021/03/13 01:32:56;;;;;;;15.15;2.80;;;;;;;2.35;57.09;99591.53;5051332;28;20029;-70
2021/03/13 01:35:22;;;;;;;8.02;2.70;;;;;;;2.20;57.06;99590.22;5052545;28;20851;-70
2021/03/13 01:37:48;;;;;;;23.23;3.88;;;;;;;1.56;59.04;99587.50;5037378;28;20048;-70
2021/03/13 01:40:15;;;;;;;19.00;2.78;;;;;;;2.47;57.07;99582.66;5034908;28;20028;-70
2021/03/13 01:42:46;;;;;;;18.38;3.67;;;;;;;2.47;56.71;99575.75;5035180;28;20102;-70
2021/03/13 01:45:20;;;;;;;20.60;2.90;;;;;;;2.08;58.11;99580.22;5055461;28;20037;-71
2021/03/13 01:47:47;;;;;;;19.23;3.97;;;;;;;2.33;57.73;99570.97;5037676;28;20029;-69
2021/03/13 01:50:19;;;;;;;;;;;;;;;2.28;56.83;99566.81;5039827;28;20116;-69
2021/03/13 01:52:50;;;;;;;20.83;3.13;;;;;;;2.71;56.10;99566.50;5046025;28;20011;-70
2021/03/13 01:55:18;;;;;;;27.07;3.43;;;;;;;2.76;55.41;99551.72;5041622;28;20040;-70
2021/03/13 01:57:46;;;;;;;15.27;3.03;;;;;;;2.70;56.01;99554.47;5041744;28;20021;-72
2021/03/13 02:00:19;;;;;;;13.52;3.60;;;;;;;2.28;57.25;99552.19;5047255;28;20047;-72
2021/03/13 02:02:50;;;;;;;9.85;2.58;;;;;;;2.48;56.47;99545.66;5059167;28;20036;-72
2021/03/13 02:05:23;;;;;;;13.88;2.85;;;;;;;2.82;55.55;99542.94;5043653;28;20078;-72
2021/03/13 02:08:25;;;;;;;22.42;4.95;;;;;;;1.98;58.44;99540.13;5042090;28;20048;-72
2021/03/13 02:11:01;;;;;;;18.63;4.50;;;;;;;1.91;58.93;99535.13;5013885;28;20037;-72
2021/03/13 02:13:35;;;;;;;12.52;3.28;;;;;;;2.24;57.54;99524.81;5029526;28;20048;-71
2021/03/13 02:16:25;;;;;;;11.98;3.42;;;;;;;2.11;57.43;99531.19;5040566;28;20037;-71
2021/03/13 02:18:54;;;;;;;14.60;3.30;;;;;;;2.05;58.50;99526.19;5042275;28;20356;-71
2021/03/13 02:21:31;;;;;;;12.75;3.83;;;;;;;1.85;58.71;99517.22;5059208;28;20394;-71
2021/03/13 02:24:24;;;;;;;16.45;3.83;;;;;;;2.35;57.07;99512.47;5047139;28;20029;-71
2021/03/13 02:27:07;;;;;;;19.17;4.30;;;;;;;2.40;57.01;99508.91;5041557;28;20056;-70
2021/03/13 02:30:03;;;;;;;15.32;3.17;;;;;;;2.14;57.77;99507.91;5046241;28;20426;-69
2021/03/13 02:32:50;;;;;;;11.35;3.63;;;;;;;2.31;57.39;99500.56;5038932;28;20528;-69
2021/03/13 02:35:23;;;;;;;25.48;3.70;;;;;;;2.91;55.63;99496.25;5039358;28;20132;-70
2021/03/13 02:37:54;;;;;;;19.77;3.75;;;;;;;2.30;57.21;99483.38;5037997;28;20103;-70
2021/03/13 02:40:27;;;;;;;14.32;3.67;;;;;;;3.12;54.84;99474.06;5029624;28;20037;-69
2021/03/13 02:42:56;;;;;;;13.57;3.20;;;;;;;2.70;55.99;99476.22;5045081;28;20060;-70
2021/03/13 02:45:24;;;;;;;17.90;3.40;;;;;;;2.65;56.26;99468.63;5036890;28;20056;-70
2021/03/13 02:47:52;;;;;;;22.13;5.70;;;;;;;2.71;56.05;99452.97;5054603;28;20052;-69
2021/03/13 02:50:19;;;;;;;14.43;3.30;;;;;;;2.69;55.97;99453.88;5038181;28;20028;-70
2021/03/13 02:52:56;;;;;;;13.50;3.05;;;;;;;2.97;54.78;99444.41;5039865;28;20057;-71
2021/03/13 02:55:23;;;;;;;11.27;3.45;;;;;;;2.77;55.85;99436.44;5055789;28;20207;-71
2021/03/13 02:57:52;;;;;;;11.27;3.97;;;;;;;2.98;55.35;99429.78;5048344;28;20017;-70
2021/03/13 03:00:21;;;;;;;11.63;4.38;;;;;;;3.10;54.60;99413.91;5043831;28;20031;-69
2021/03/13 03:02:53;;;;;;;18.05;2.78;;;;;;;3.13;54.41;99410.38;5069717;28;20055;-70
2021/03/13 03:05:20;;;;;;;12.25;3.47;;;;;;;3.39;53.67;99401.81;5033037;28;20024;-70
2021/03/13 03:07:50;;;;;;;10.20;3.13;;;;;;;3.11;54.67;99394.94;5068886;28;20033;-70
2021/03/13 03:10:19;;;;;;;17.17;3.75;;;;;;;2.61;55.78;99389.63;5056262;28;20273;-70
2021/03/13 03:12:48;;;;;;;15.80;3.78;;;;;;;2.84;55.44;99386.34;5046923;28;20037;-71
2021/03/13 03:15:17;;;;;;;22.25;4.20;;;;;;;3.24;54.29;99379.03;5051019;28;20408;-70
2021/03/13 03:17:45;;;;;;;11.82;2.78;;;;;;;3.17;54.36;99374.06;5034449;28;20062;-70
2021/03/13 03:20:13;;;;;;;11.30;3.05;;;;;;;2.75;55.61;99365.97;5056833;28;20029;-70
2021/03/13 03:22:41;;;;;;;12.05;2.72;;;;;;;3.06;54.49;99359.84;5054695;28;20078;-72
2021/03/13 03:25:14;;;;;;;18.33;4.03;;;;;;;3.12;54.49;99355.31;5049641;28;20092;-71
2021/03/13 03:27:50;;;;;;;14.02;4.05;;;;;;;3.20;54.60;99352.47;5031127;28;20044;-72
2021/03/13 03:30:22;;;;;;;15.05;3.15;;;;;;;2.86;55.74;99337.25;5050561;28;20132;-72
2021/03/13 03:32:48;;;;;;;19.60;3.75;;;;;;;3.14;54.88;99343.19;5039023;28;20573;-72
2021/03/13 03:35:16;;;;;;;12.63;4.07;;;;;;;3.58;53.63;99327.94;5048665;28;20446;-72
2021/03/13 03:37:43;;;;;;;13.45;3.20;;;;;;;3.84;52.73;99323.56;5049268;28;20380;-73
2021/03/13 03:40:10;;;;;;;13.15;2.65;;;;;;;3.33;53.94;99322.78;5051024;28;20056;-71
2021/03/13 03:42:43;;;;;;;9.25;2.78;;;;;;;3.66;52.98;99316.47;5038602;28;20047;-72
2021/03/13 03:45:09;;;;;;;;;;;;;;;3.79;52.69;99310.81;5076039;28;20050;-74
2021/03/13 03:47:38;;;;;;;16.45;3.55;;;;;;;4.00;52.32;99310.91;5061903;28;19912;-74
2021/03/13 03:50:09;;;;;;;12.75;2.72;;;;;;;3.13;54.25;99300.19;5063248;28;20040;-72
2021/03/13 03:52:49;;;;;;;8.35;2.90;;;;;;;3.52;53.52;99299.75;5060176;28;21123;-74
2021/03/13 03:55:19;;;;;;;12.52;4.07;;;;;;;3.53;53.82;99292.81;5063294;28;20028;-74
2021/03/13 03:57:46;;;;;;;14.65;3.15;;;;;;;3.63;53.58;99293.31;5074846;28;20051;-74
2021/03/13 04:00:13;;;;;;;14.55;3.03;;;;;;;3.49;53.82;99280.91;5059974;28;20546;-74
2021/03/13 04:02:42;;;;;;;9.65;2.30;;;;;;;3.53;53.74;99280.75;5087362;28;20047;-74
2021/03/13 04:05:11;;;;;;;12.25;2.78;;;;;;;3.55;54.21;99273.78;5075713;28;20033;-73
2021/03/13 04:07:38;;;;;;;12.70;2.95;;;;;;;2.57;56.57;99265.06;5067297;28;20102;-74
2021/03/13 04:10:05;;;;;;;14.98;2.92;;;;;;;3.76;53.32;99253.22;5055366;28;20067;-74
2021/03/13 04:12:33;;;;;;;6.22;2.58;;;;;;;3.43;54.06;99250.16;5052479;28;20417;-73
2021/03/13 04:14:59;;;;;;;10.32;2.60;;;;;;;3.65;53.51;99247.59;5041735;28;20065;-72
2021/03/13 04:17:27;;;;;;;14.93;2.53;;;;;;;3.18;55.02;99236.34;5062056;28;20021;-73
2021/03/13 04:19:54;;;;;;;12.23;2.22;;;;;;;3.70;53.65;99232.78;5053288;28;20033;-71
2021/03/13 04:22:22;;;;;;;16.92;3.67;;;;;;;3.96;53.01;99227.47;5056476;28;20025;-73
2021/03/13 04:24:49;;;;;;;10.90;2.92;;;;;;;3.47;54.30;99215.53;5056387;28;20032;-71
2021/03/13 04:27:16;;;;;;;10.07;2.28;;;;;;;3.26;54.82;99219.75;5049331;28;20360;-70
2021/03/13 04:29:42;;;;;;;12.73;2.72;;;;;;;3.67;53.73;99201.88;5054388;28;20032;-72
2021/03/13 04:32:08;;;;;;;9.85;1.90;;;;;;;3.26;54.82;99202.50;5043368;28;20426;-73
2021/03/13 04:34:35;;;;;;;10.27;2.13;;;;;;;3.54;54.27;99194.63;5056109;28;20089;-72
2021/03/13 04:37:02;;;;;;;7.60;1.63;;;;;;;3.69;54.46;99190.59;5062787;28;20041;-71
2021/03/13 04:39:29;;;;;;;9.60;2.00;;;;;;;3.46;55.01;99182.88;5064232;28;20028;-72
2021/03/13 04:41:55;;;;;;;7.05;1.75;;;;;;;3.43;55.15;99176.09;5056505;28;20060;-73
2021/03/13 04:44:21;;;;;;;12.77;2.17;;;;;;;3.23;55.09;99168.22;5039954;28;20041;-73
2021/03/13 04:46:48;;;;;;;10.50;2.40;;;;;;;3.77;54.87;99165.31;5053716;28;20047;-72
2021/03/13 04:49:14;;;;;;;10.93;1.98;;;;;;;3.31;56.31;99159.28;5052451;28;20047;-73
2021/03/13 04:51:40;;;;;;;6.40;3.00;;;;;;;3.90;54.40;99138.97;5028688;28;20032;-75
2021/03/13 04:54:06;;;;;;;12.00;2.10;;;;;;;2.84;57.95;99138.59;5038510;28;20029;-74
2021/03/13 04:56:32;;;;;;;5.13;1.55;;;;;;;3.68;55.50;99132.06;5051317;28;20093;-74
2021/03/13 04:58:57;;;;;;;4.28;2.03;;;;;;;2.72;58.47;99118.41;5053260;28;20025;-73
2021/03/13 05:01:23;;;;;;;7.10;2.58;;;;;;;3.38;56.69;99108.25;5055533;28;20059;-74
2021/03/13 05:03:48;;;;;;;7.68;1.73;;;;;;;3.74;55.65;99089.66;5054555;28;20116;-75
2021/03/13 05:06:14;;;;;;;6.78;1.02;;;;;;;3.51;56.56;99087.97;5055360;28;20054;-74
2021/03/13 05:08:40;;;;;;;4.45;1.60;;;;;;;3.31;57.33;99081.00;5038971;28;20507;-74
2021/03/13 05:11:07;;;;;;;5.88;2.30;;;;;;;3.64;55.88;99070.25;5052489;28;20036;-75
2021/03/13 05:13:32;;;;;;;7.30;1.58;;;;;;;2.51;59.37;99064.13;5022505;28;20021;-73
2021/03/13 05:15:59;;;;;;;10.77;1.52;;;;;;;3.08;58.15;99051.69;5053017;28;20124;-74
2021/03/13 05:18:24;;;;;;;7.25;1.70;;;;;;;3.24;57.61;99049.38;5038991;28;20029;-71
2021/03/13 05:20:50;;;;;;;7.28;2.85;;;;;;;3.34;57.17;99034.41;5054660;28;20041;-73
2021/03/13 05:23:15;;;;;;;2.67;1.13;;;;;;;2.89;58.86;99030.06;5057123;28;20437;-74
2021/03/13 05:25:43;;;;;;;7.65;0.88;;;;;;;3.33;57.60;99022.38;5058480;28;20037;-74
2021/03/13 05:28:08;;;;;;;8.70;1.30;;;;;;;2.93;58.53;99016.16;5057535;28;20495;-70
2021/03/13 05:30:34;;;;;;;6.55;1.65;;;;;;;3.17;58.16;99012.63;5054998;28;20082;-70
2021/03/13 05:32:59;;;;;;;3.33;1.40;;;;;;;3.12;58.50;98999.06;5040657;28;20032;-70
2021/03/13 05:35:25;;;;;;;9.77;1.35;;;;;;;3.34;57.73;98998.25;5055469;28;20390;-71
2021/03/13 05:37:50;;;;;;;6.00;1.25;;;;;;;2.52;60.67;98992.75;5058654;28;20077;-72
2021/03/13 05:40:16;;;;;;;4.97;1.15;;;;;;;2.70;60.01;98984.31;5055957;28;20052;-71
2021/03/13 05:42:42;;;;;;;2.78;1.17;;;;;;;3.03;59.01;98978.78;5057432;28;20131;-73
2021/03/13 05:45:08;;;;;;;6.07;1.42;;;;;;;2.94;59.10;98966.22;5040725;28;20453;-74
2021/03/13 05:47:38;;;;;;;2.65;1.05;;;;;;;2.90;59.01;98956.94;5025027;28;20038;-73
2021/03/13 05:50:10;;;;;;;2.90;1.17;;;;;;;2.59;59.81;98947.78;5056036;28;20037;-71
2021/03/13 05:52:37;;;;;;;6.07;1.67;;;;;;;2.81;59.52;98934.91;5058847;28;20119;-71
2021/03/13 05:55:05;;;;;;;2.47;0.88;;;;;;;1.78;63.08;98935.25;5060561;28;20387;-71
2021/03/13 05:57:31;;;;;;;3.55;0.82;;;;;;;2.65;60.04;98911.44;5057493;28;20029;-71
2021/03/13 05:59:57;;;;;;;3.63;0.95;;;;;;;2.43;60.50;98906.25;5036697;28;20098;-71
2021/03/13 06:02:23;;;;;;;4.82;2.15;;;;;;;2.37;60.44;98908.22;5056306;28;20033;-72
2021/03/13 06:04:50;;;;;;;4.70;0.88;;;;;;;2.85;59.29;98891.75;5056204;28;20466;-72
2021/03/13 06:07:20;;;;;;;2.08;0.63;;;;;;;2.03;61.14;98866.50;5058273;28;20032;-72
2021/03/13 06:09:46;;;;;;;10.90;0.80;;;;;;;2.10;61.21;98861.94;5055595;28;20048;-70
2021/03/13 06:12:11;;;;;;;3.38;1.23;;;;;;;2.11;60.88;98837.88;5057178;28;20120;-73
2021/03/13 06:14:37;;;;;;;2.63;0.60;;;;;;;2.55;59.81;98838.75;5054336;28;20082;-73
2021/03/13 06:17:02;;;;;;;2.80;0.82;;;;;;;2.72;59.29;98835.47;5058692;28;20041;-73
2021/03/13 06:19:48;;;;;;;1.67;0.40;;;;;;;2.80;59.32;98814.56;5056978;28;20349;-73
2021/03/13 06:22:32;;;;;;;1.50;0.65;;;;;;;2.89;58.81;98790.09;5056933;28;20124;-74
2021/03/13 06:25:22;;;;;;;2.53;0.85;;;;;;;2.63;59.91;98794.59;5057775;28;20048;-72
2021/03/13 06:28:00;;;;;;;1.98;0.70;;;;;;;2.80;59.79;98780.16;5056819;28;20029;-71
2021/03/13 06:30:30;;;;;;;1.48;0.82;;;;;;;3.14;58.66;98775.25;5053766;28;20063;-71
2021/03/13 06:32:56;;;;;;;1.58;0.82;;;;;;;2.77;59.88;98763.88;5058164;28;20067;-73
2021/03/13 06:35:28;;;;;;;3.17;0.75;;;;;;;2.46;61.23;98758.31;5053717;28;20032;-71
2021/03/13 06:37:57;;;;;;;2.05;0.95;;;;;;;2.26;61.80;98741.06;5067611;28;20036;-71
2021/03/13 06:40:32;;;;;;;2.05;1.23;;;;;;;2.48;61.02;98733.31;5068511;28;20097;-71
2021/03/13 06:42:59;;;;;;;3.28;1.17;;;;;;;2.51;61.02;98717.69;5057363;28;20475;-71
2021/03/13 06:45:26;;;;;;;3.47;1.10;;;;;;;2.45;61.58;98705.09;5054669;28;20076;-72
2021/03/13 06:47:52;;;;;;;2.13;1.10;;;;;;;2.54;60.71;98702.94;5052388;28;20526;-72
2021/03/13 06:50:23;;;;;;;8.52;1.80;;;;;;;2.08;62.68;98694.50;5038158;28;20062;-72
2021/03/13 06:53:06;;;;;;;2.57;1.10;;;;;;;1.79;63.35;98681.94;5052950;28;20036;-75
2021/03/13 06:55:32;;;;;;;1.92;1.08;;;;;;;2.30;62.17;98673.84;5055352;28;20024;-72
2021/03/13 06:58:10;;;;;;;1.13;0.73;;;;;;;3.13;59.94;98657.41;5039717;28;20036;-74
2021/03/13 07:00:38;;;;;;;2.35;1.45;;;;;;;3.10;60.06;98656.72;5036472;28;20051;-73
2021/03/13 07:03:09;;;;;;;1.58;0.80;;;;;;;2.75;61.18;98643.63;5024302;28;20094;-73
2021/03/13 07:05:36;;;;;;;2.23;1.03;;;;;;;2.98;60.70;98632.31;5054643;28;20024;-74
2021/03/13 07:08:20;;;;;;;1.75;0.98;;;;;;;2.76;61.24;98632.41;5058074;28;20044;-73
2021/03/13 07:10:46;;;;;;;2.35;0.93;;;;;;;2.82;61.31;98636.44;5049432;28;20036;-74
2021/03/13 07:13:35;;;;;;;3.15;0.98;;;;;;;2.83;61.58;98615.75;5056119;28;20450;-71
2021/03/13 07:16:23;;;;;;;3.58;1.55;;;;;;;3.30;60.06;98609.38;5054760;28;20075;-72
2021/03/13 07:18:49;;;;;;;2.25;1.50;;;;;;;2.27;63.16;98609.53;5049145;28;20461;-70
2021/03/13 07:21:16;;;;;;;5.30;1.50;;;;;;;3.09;60.99;98601.69;5053121;28;20029;-70
2021/03/13 07:23:43;;;;;;;2.10;1.05;;;;;;;3.17;60.99;98603.91;5062160;28;20061;-72
2021/03/13 07:26:14;;;;;;;2.55;1.23;;;;;;;2.78;62.07;98597.06;5053855;28;20479;-72
2021/03/13 07:28:44;;;;;;;2.05;1.63;;;;;;;2.72;62.33;98587.00;5052032;28;20418;-72
2021/03/13 07:31:11;;;;;;;2.67;2.03;;;;;;;2.82;62.79;98592.59;5036652;28;20059;-72
2021/03/13 07:33:40;;;;;;;5.25;1.77;;;;;;;3.04;61.85;98607.94;5038581;28;20091;-72
2021/03/13 07:36:10;;;;;;;4.68;1.42;;;;;;;2.81;62.95;98588.34;5053051;28;20064;-71
2021/03/13 07:38:41;;;;;;;1.65;1.02;;;;;;;2.85;62.61;98593.31;5055356;28;20047;-73
2021/03/13 07:41:14;;;;;;;1.80;1.00;;;;;;;3.52;60.79;98591.97;5038062;28;20041;-72
2021/03/13 07:43:42;;;;;;;2.10;1.38;;;;;;;3.25;61.49;98585.47;5052959;28;20043;-72
2021/03/13 07:46:08;;;;;;;2.03;0.90;;;;;;;2.87;62.93;98588.09;5059911;28;20096;-72
2021/03/13 07:48:36;;;;;;;3.17;1.08;;;;;;;2.90;62.54;98595.66;5039661;28;20039;-74
2021/03/13 07:51:02;;;;;;;1.33;0.73;;;;;;;3.34;61.40;98603.19;5062812;28;20055;-71
2021/03/13 07:53:29;;;;;;;1.70;0.90;;;;;;;3.10;62.23;98592.19;5053609;28;20490;-71
2021/03/13 07:55:56;;;;;;;2.55;1.15;;;;;;;3.26;62.33;98590.56;5037813;28;20059;-71
2021/03/13 07:58:22;;;;;;;3.30;1.00;;;;;;;3.52;61.60;98594.56;5056877;28;20037;-71
2021/03/13 08:00:48;;;;;;;6.15;1.17;;;;;;;3.54;61.29;98605.66;5053346;28;20028;-72
2021/03/13 08:03:32;;;;;;;3.30;1.35;;;;;;;3.20;62.26;98601.19;5055200;28;20040;-71
2021/03/13 08:05:59;;;;;;;1.70;0.73;;;;;;;3.27;62.57;98617.22;5037584;28;20041;-71
2021/03/13 08:08:39;;;;;;;1.85;0.98;;;;;;;3.40;62.18;98626.13;5038202;28;20067;-71
2021/03/13 08:11:07;;;;;;;0.80;0.32;;;;;;;2.79;62.94;98629.69;5057137;28;20043;-71
2021/03/13 08:13:35;;;;;;;0.65;0.20;;;;;;;1.55;64.24;98647.66;5054218;28;20036;-71
2021/03/13 08:16:05;;;;;;;1.15;0.10;;;;;;;2.01;61.65;98646.69;5037993;28;20037;-72
2021/03/13 08:18:44;;;;;;;1.02;0.10;;;;;;;1.54;62.00;98643.41;5057493;28;20555;-71
2021/03/13 08:21:19;;;;;;;0.68;0.00;;;;;;;1.90;60.20;98611.03;5053717;28;20043;-72
2021/03/13 08:23:48;;;;;;;1.77;0.10;;;;;;;1.24;60.74;98620.50;5053442;28;20044;-72
2021/03/13 08:26:14;;;;;;;1.77;0.10;;;;;;;1.91;59.27;98614.47;5054908;28;20193;-73
2021/03/13 08:28:45;;;;;;;0.50;0.10;;;;;;;1.57;58.98;98613.22;5055757;28;20163;-72
2021/03/13 08:31:23;;;;;;;0.98;0.10;;;;;;;1.49;59.03;98616.09;5053104;28;20035;-71
2021/03/13 08:34:01;;;;;;;3.08;0.30;;;;;;;1.90;58.70;98613.63;5061950;28;20047;-71
2021/03/13 08:36:28;;;;;;;2.67;0.10;;;;;;;3.34;55.38;98609.19;5038518;28;20210;-71
2021/03/13 08:39:00;;;;;;;0.50;0.10;;;;;;;3.22;55.24;98606.28;5052565;28;20074;-71
2021/03/13 08:41:44;;;;;;;0.90;0.28;;;;;;;4.66;53.50;98622.56;5052494;28;20064;-70
2021/03/13 08:44:13;;;;;;;1.70;0.20;;;;;;;6.43;49.39;98618.13;5051252;28;20033;-70
2021/03/13 08:46:54;;;;;;;2.22;0.20;;;;;;;5.54;49.12;98613.59;5039001;28;20028;-70
2021/03/13 08:49:29;;;;;;;1.45;0.30;;;;;;;4.18;53.18;98613.78;5037314;28;20040;-70
2021/03/13 08:52:06;;;;;;;3.90;0.45;;;;;;;4.78;53.61;98605.56;5051630;28;20101;-71
2021/03/13 08:54:41;;;;;;;1.77;0.35;;;;;;;5.88;50.55;98604.78;5036271;28;20032;-70
2021/03/13 08:57:09;;;;;;;4.78;0.40;;;;;;;6.35;50.28;98617.72;5050475;28;20037;-71
2021/03/13 08:59:36;;;;;;;1.42;0.13;;;;;;;5.92;49.47;98607.19;5037919;28;20025;-70
2021/03/13 09:02:11;;;;;;;0.55;0.10;;;;;;;6.51;51.47;98615.91;5051545;28;20455;-70
2021/03/13 09:04:38;;;;;;;2.25;0.43;;;;;;;6.13;50.87;98610.31;5035264;28;20028;-71
2021/03/13 09:07:06;;;;;;;5.72;0.30;;;;;;;5.48;50.46;98624.31;5015989;28;20450;-70
2021/03/13 09:09:33;;;;;;;3.17;0.30;;;;;;;6.00;50.18;98595.47;5048108;28;20045;-70
2021/03/13 09:12:05;;;;;;;2.78;0.55;;;;;;;6.11;49.84;98591.44;5050553;28;20037;-71
2021/03/13 09:14:31;;;;;;;;;;;;;;;6.60;47.89;98611.94;5035367;28;20025;-71
2021/03/13 09:16:57;;;;;;;1.77;0.30;;;;;;;5.42;49.92;98590.97;5030754;28;20066;-70
2021/03/13 09:19:24;;;;;;;6.00;0.60;;;;;;;5.94;47.96;98593.22;5049603;28;20090;-70
2021/03/13 09:21:54;;;;;;;5.72;0.40;;;;;;;6.76;47.39;98607.50;5047697;28;20569;-72
2021/03/13 09:24:23;;;;;;;4.20;0.30;;;;;;;7.46;45.37;98611.84;5050020;28;20086;-70
2021/03/13 09:26:51;;;;;;;7.65;0.55;;;;;;;5.54;48.20;98598.06;5031388;28;20032;-71
2021/03/13 09:29:32;;;;;;;8.07;1.23;;;;;;;6.33;48.50;98610.03;5045913;28;20523;-71
2021/03/13 09:32:15;;;;;;;6.95;0.80;;;;;;;5.71;47.74;98598.88;5048566;28;20285;-72
2021/03/13 09:34:43;;;;;;;2.40;0.30;;;;;;;7.27;45.25;98599.19;5060491;28;20140;-71
2021/03/13 09:37:13;;;;;;;4.50;0.50;;;;;;;7.32;43.77;98587.56;5051439;28;20130;-72
2021/03/13 09:39:40;;;;;;;3.33;0.80;;;;;;;5.96;46.00;98599.16;5035694;28;20036;-71
2021/03/13 09:42:09;;;;;;;3.53;0.88;;;;;;;7.47;44.46;98590.16;5037631;28;20025;-71
2021/03/13 09:44:37;;;;;;;12.48;1.13;;;;;;;5.72;46.92;98591.00;5050218;28;20827;-72
2021/03/13 09:47:10;;;;;;;4.88;1.00;;;;;;;6.01;45.47;98591.13;5050306;28;20074;-72
2021/03/13 09:49:35;;;;;;;7.30;0.60;;;;;;;5.89;45.99;98590.06;5042199;28;20078;-71
2021/03/13 09:52:01;;;;;;;10.27;1.25;;;;;;;5.86;44.40;98598.03;5055223;28;20041;-71
2021/03/13 09:54:27;;;;;;;7.70;0.28;;;;;;;5.92;44.75;98591.63;5059770;28;20033;-71
2021/03/13 09:56:52;;;;;;;9.50;0.60;;;;;;;6.58;43.45;98586.06;5060702;28;20043;-70
2021/03/13 09:59:18;;;;;;;11.02;1.27;;;;;;;6.55;43.79;98590.59;5051473;28;20033;-71
2021/03/13 10:01:44;;;;;;;11.30;0.63;;;;;;;6.30;43.73;98586.84;5056695;28;20055;-71
2021/03/13 10:04:10;;;;;;;8.13;0.60;;;;;;;7.12;43.75;98583.63;5053488;28;20033;-72
2021/03/13 10:06:36;;;;;;;18.30;1.33;;;;;;;7.62;42.25;98590.94;5055818;28;20037;-71
2021/03/13 10:09:02;;;;;;;10.48;1.20;;;;;;;6.97;43.93;98592.34;5057233;28;20456;-70
2021/03/13 10:11:41;;;;;;;9.05;1.23;;;;;;;6.98;42.62;98588.00;5054749;28;20033;-72
2021/03/13 10:14:21;;;;;;;11.10;0.77;;;;;;;5.76;44.48;98596.88;5054154;28;20119;-70
2021/03/13 10:16:47;;;;;;;3.90;0.50;;;;;;;7.51;41.42;98591.59;5055028;28;20079;-71
2021/03/13 10:19:32;;;;;;;11.60;1.02;;;;;;;6.57;42.65;98599.13;5053150;28;20082;-71
2021/03/13 10:22:24;;;;;;;10.02;0.60;;;;;;;6.48;42.65;98590.13;5054470;28;20029;-71
2021/03/13 10:24:53;;;;;;;3.53;0.47;;;;;;;5.98;42.80;98633.63;5058603;28;20041;-71
2021/03/13 10:27:21;;;;;;;7.93;0.70;;;;;;;7.49;42.58;98589.13;5052911;28;20111;-72
2021/03/13 10:29:55;;;;;;;7.75;0.90;;;;;;;6.63;44.64;98591.81;5055184;28;20510;-71
2021/03/13 10:32:26;;;;;;;6.63;0.70;;;;;;;6.46;44.73;98586.78;5054569;28;20111;-72
2021/03/13 10:35:20;;;;;;;9.52;0.63;;;;;;;6.56;43.19;98597.47;5037214;28;20044;-71
2021/03/13 10:37:48;;;;;;;12.73;0.50;;;;;;;6.50;44.76;98581.31;5057733;28;20266;-71
2021/03/13 10:40:39;;;;;;;4.78;0.70;;;;;;;6.90;43.83;98591.06;5053823;28;20033;-70
2021/03/13 10:43:24;;;;;;;5.90;0.80;;;;;;;8.01;41.14;98584.94;5056600;28;20597;-71
2021/03/13 10:45:59;;;;;;;7.22;0.52;;;;;;;6.92;42.73;98578.81;5037101;28;20143;-70
2021/03/13 10:48:26;;;;;;;9.27;0.98;;;;;;;6.41;43.13;98584.47;5056444;28;20029;-70
2021/03/13 10:50:52;;;;;;;5.65;0.57;;;;;;;6.20;43.49;98575.34;5037827;28;20071;-71
2021/03/13 10:53:31;;;;;;;8.38;0.90;;;;;;;5.74;44.65;98583.16;5055268;28;20040;-70
2021/03/13 10:55:59;;;;;;;6.60;0.60;;;;;;;6.12;44.08;98590.50;5053822;28;20370;-71
2021/03/13 10:58:33;;;;;;;12.05;1.52;;;;;;;7.41;42.97;98590.53;5057429;28;20474;-71
2021/03/13 11:01:00;;;;;;;2.22;0.98;;;;;;;6.46;42.65;98574.66;5053980;28;20554;-72
2021/03/13 11:03:26;;;;;;;10.82;1.05;;;;;;;6.27;43.51;98580.06;5055748;28;20040;-71
2021/03/13 11:05:53;;;;;;;5.53;0.77;;;;;;;5.51;45.63;98598.22;5053382;28;20037;-71
2021/03/13 11:08:19;;;;;;;6.43;0.90;;;;;;;5.39;46.09;98573.00;5039595;28;20037;-70
2021/03/13 11:10:46;;;;;;;7.90;0.60;;;;;;;5.99;45.24;98580.81;5052769;28;20517;-70
2021/03/13 11:13:12;;;;;;;7.72;0.70;;;;;;;5.12;47.22;98591.69;5055411;28;20041;-70
2021/03/13 11:15:37;;;;;;;6.63;0.60;;;;;;;5.78;46.47;98579.47;5036926;28;20031;-71
2021/03/13 11:18:04;;;;;;;9.20;0.30;;;;;;;5.44;45.89;98586.53;5054415;28;20174;-71
2021/03/13 11:20:30;;;;;;;6.65;0.25;;;;;;;6.60;45.02;98585.97;5040221;28;20052;-71
2021/03/13 11:22:55;;;;;;;5.57;0.75;;;;;;;6.53;43.58;98577.72;5053906;28;20029;-71
2021/03/13 11:25:21;;;;;;;2.72;0.30;;;;;;;6.46;44.25;98572.06;5046052;28;20070;-70
2021/03/13 11:27:46;;;;;;;8.32;0.90;;;;;;;6.34;44.16;98577.97;5035986;28;20040;-72
2021/03/13 11:30:13;;;;;;;5.13;0.40;;;;;;;6.25;43.71;98562.91;5055156;28;20064;-71
2021/03/13 11:32:39;;;;;;;3.75;0.80;;;;;;;6.71;43.22;98578.38;5055980;28;20036;-71
2021/03/13 11:35:06;;;;;;;10.25;1.02;;;;;;;6.77;43.25;98565.00;5058593;28;20438;-71
2021/03/13 11:37:32;;;;;;;4.93;0.43;;;;;;;6.57;43.13;98545.44;5038345;28;20041;-71
2021/03/13 11:39:57;;;;;;;6.00;0.73;;;;;;;7.35;41.24;98551.94;5052332;28;20081;-71
2021/03/13 11:42:28;;;;;;;7.10;0.57;;;;;;;6.30;42.42;98566.09;5054273;28;20033;-71
2021/03/13 11:44:55;;;;;;;10.35;1.27;;;;;;;6.49;42.02;98577.06;5052947;28;20067;-71
2021/03/13 11:47:23;;;;;;;7.68;0.63;;;;;;;6.24;42.58;98564.69;5052501;28;20106;-71
2021/03/13 11:49:49;;;;;;;3.80;0.93;;;;;;;6.34;42.91;98557.22;5038880;28;20392;-72
2021/03/13 11:52:16;;;;;;;15.55;0.57;;;;;;;5.98;43.38;98563.59;5054376;28;20105;-71